METAR és
SPECI
METAR LHBP 310600Z VRB02KT CAVOK 18/15 Q1016 NOSIG=
METAR LHBP 310530Z 30004KT CAVOK 18/15 Q1016 NOSIG=
METAR LHBP 310500Z VRB03KT CAVOK 17/15 Q1016 NOSIG=
METAR LHBP 310430Z 32004KT CAVOK 16/14 Q1016 NOSIG=
METAR LHBP 310400Z VRB03KT CAVOK 15/14 Q1016 NOSIG=
METAR LHBP 310330Z VRB02KT CAVOK 15/14 Q1016 NOSIG=
TAF
TAF LHBP 310500Z 3106/0106 VRB03KT CAVOK BECMG 3108/3111 12006KT BECMG 3115/3118 06005KT TEMPO 3120/0106 -SHRA SCT045 BKN090 BECMG 0103/0106 08010KT=
GAMET
FAHU41 LHBM 310500
LHCC GAMET VALID 310600/311200 LHBP-
BUDAPEST FIR BLW FL100
SECN 1
SIGWX: 09/12 ISOL TSRA N OF N4730
SIG CLD: ISOL EMBD TCU CB 2000-4000/XXX FT AGL N OF N4730
SIGMETS APPLICABLE: NIL=
OMSZ: 2014. augusztus 31. 07:08 (05:08  UTC)
[FAHU41]
AIRMET
Nincs érvényes távirat! 
WAHU41 LHBM 111600
LHCC AIRMET 01 VALID 111600/111800 LHBP-
LHCC BUDAPEST FIR ISOL TS OBS AT 1555Z E OF E02030
TOP ABV FL100 MOV NE NC=
SIGMET
Nincs érvényes távirat! 
WSHU31 LHBM 271530
LHCC SIGMET 03 VALID 271330/271600 LHBP-
LHCC BUDAPEST FIR CNL SIGMET 02 271330/271600=
SIGMET
Vulkáni hamufelhő
Nincs érvényes távirat! 
WVHU31 LHBM 271515 CCA
LHCC SIGMET 03 VALID 271515/271800 LHBP-
LHCC BUDAPEST FIR EXERCISE VOLCEX12/01
CNL VA SIGMET 02 271200/271800
EXERCISE EXERCISE EXERCISE VOLCEX12/01=